Статистика SHAVIT - База данных рекордов
Карта Ник Стиль Трек Время Прыжки Стрейфы Sync Очки SteamID Дата (DD-MM-YYYY)
surf_beginner2 let me die... Sideways Main 01:05.368m 2 90 89.87% 0.00 410198738 27-10-2021 11:10:29
surf_gold1 let me die... Normal Main 28.647s 0 39 93.80% 151.91 410198738 27-10-2021 10:45:15
surf_dhyana xazoreeeeeeed Normal Bonus 2 13.771s 10 23 94.53% 18.98 448099386 26-10-2021 19:43:10
surf_dhyana 0 Normal Bonus 1 12.514s 4 15 90.18% 18.96 419406085 26-10-2021 19:23:29
surf_highlands xazoreeeeeeed Sideways Main 01:58.871m 4 174 93.91% 0.00 448099386 26-10-2021 19:01:18
surf_reprise трахнул под кизару Sideways Main 01:00.628m 1 75 89.87% 0.00 375219808 26-10-2021 12:46:06
surf_retroartz xeN [$] Sideways Main 52.587s 9 111 89.86% 0.00 20962719 26-10-2021 09:26:09
surf_rookie .F.R.I.D. W-Only Main 31:00.660m 285 1950 92.50% 258.76 943518074 26-10-2021 00:30:37
surf_skipalot трахнул под кизару Normal Main 44.940s 0 43 94.29% 153.00 375219808 25-10-2021 20:26:08
surf_skipalot Посластечарница Low Grav Bonus 4 14.258s 0 27 93.85% 0.00 125719421 25-10-2021 20:25:52
surf_skipalot Kотачи D-Only Main 56.967s 0 51 91.17% 76.90 906151337 25-10-2021 19:46:01
surf_skipalot Посластечарница D-Only Bonus 1 24.521s 0 24 96.84% 9.58 125719421 25-10-2021 19:22:45
surf_cubic let me die... Low Grav Main 08:14.646m 63 968 93.53% 0.00 410198738 25-10-2021 17:29:35
surf_derpis_ksf трахнул под кизару Sideways Main 01:13.095m 5 101 85.69% 0.00 375219808 25-10-2021 15:08:55
surf_tempest Посластечарница 400 Vel Bonus 3 5.321s 0 0 0.00% 22.61 125719421 25-10-2021 14:24:51
surf_tempest Orgasm donor 400 Vel Bonus 1 18.457s 1 17 95.86% 22.87 903390163 25-10-2021 14:24:28
surf_tempest Посластечарница Scroll Bonus 3 5.306s 0 0 0.00% 25.06 125719421 25-10-2021 14:24:08
surf_tempest Посластечарница Half-Sideways Bonus 3 5.323s 0 0 0.00% 22.61 125719421 25-10-2021 14:22:22
surf_tempest Посластечарница W-Only Bonus 3 5.303s 0 0 0.00% 24.49 125719421 25-10-2021 14:20:59
surf_aser hecker (.YeZv0R) W-Only Bonus 1 9.234s 14 0 75.42% 24.58 1059162811 25-10-2021 09:23:36
surf_aser hecker (.YeZv0R) Sideways Bonus 1 7.206s 12 35 83.47% 0.00 1059162811 25-10-2021 09:10:48
surf_aser hecker (.YeZv0R) Half-Sideways Bonus 1 13.113s 14 1 2.09% 22.76 1059162811 25-10-2021 09:05:15
surf_aser hecker (.YeZv0R) D-Only Bonus 1 6.792s 7 32 78.92% 9.43 1059162811 24-10-2021 22:52:24
surf_delight_go виндов ресизе Normal Bonus 3 23.195s 0 24 93.57% 19.14 284425340 24-10-2021 21:45:48
surf_delight_go ✪ vanyaaaA Sideways Bonus 3 23.538s 0 23 90.23% 0.00 198600584 24-10-2021 21:41:18